sensor_id;sensor_type;location;lat;lon;timestamp;temperature;humidity
77829;DHT22;67019;51.034;3.728;2024-03-17T00:01:05;9.80;99.90
77829;DHT22;67019;51.034;3.728;2024-03-17T00:03:32;9.70;99.90
77829;DHT22;67019;51.034;3.728;2024-03-17T00:06:00;9.80;99.90
77829;DHT22;67019;51.034;3.728;2024-03-17T00:08:27;9.80;99.90
77829;DHT22;67019;51.034;3.728;2024-03-17T00:10:54;9.70;99.90
77829;DHT22;67019;51.034;3.728;2024-03-17T00:13:21;9.70;99.90
77829;DHT22;67019;51.034;3.728;2024-03-17T00:15:48;9.70;99.90
77829;DHT22;67019;51.034;3.728;2024-03-17T00:18:15;9.70;99.90
77829;DHT22;67019;51.034;3.728;2024-03-17T00:20:42;9.70;99.90
77829;DHT22;67019;51.034;3.728;2024-03-17T00:23:09;9.70;99.90
77829;DHT22;67019;51.034;3.728;2024-03-17T00:25:38;9.70;99.90
77829;DHT22;67019;51.034;3.728;2024-03-17T00:28:05;9.60;99.90
77829;DHT22;67019;51.034;3.728;2024-03-17T00:30:32;9.50;99.90
77829;DHT22;67019;51.034;3.728;2024-03-17T00:32:59;9.40;99.90
77829;DHT22;67019;51.034;3.728;2024-03-17T00:35:26;9.50;99.90
77829;DHT22;67019;51.034;3.728;2024-03-17T00:37:53;9.70;99.90
77829;DHT22;67019;51.034;3.728;2024-03-17T00:40:20;9.60;99.90
77829;DHT22;67019;51.034;3.728;2024-03-17T00:42:47;9.60;99.90
77829;DHT22;67019;51.034;3.728;2024-03-17T00:45:14;9.70;99.90
77829;DHT22;67019;51.034;3.728;2024-03-17T00:47:41;9.70;99.90
77829;DHT22;67019;51.034;3.728;2024-03-17T00:50:09;9.40;99.90
77829;DHT22;67019;51.034;3.728;2024-03-17T00:52:37;9.60;99.90
77829;DHT22;67019;51.034;3.728;2024-03-17T00:55:05;9.90;99.90
77829;DHT22;67019;51.034;3.728;2024-03-17T00:57:31;9.80;99.90
77829;DHT22;67019;51.034;3.728;2024-03-17T00:59:58;9.70;99.90
77829;DHT22;67019;51.034;3.728;2024-03-17T01:02:25;9.40;99.90
77829;DHT22;67019;51.034;3.728;2024-03-17T01:04:52;9.70;99.90
77829;DHT22;67019;51.034;3.728;2024-03-17T01:07:19;9.80;99.90
77829;DHT22;67019;51.034;3.728;2024-03-17T01:09:47;9.70;99.90
77829;DHT22;67019;51.034;3.728;2024-03-17T01:12:14;9.80;99.90
77829;DHT22;67019;51.034;3.728;2024-03-17T01:14:41;9.80;99.90
77829;DHT22;67019;51.034;3.728;2024-03-17T01:17:08;9.80;99.90
77829;DHT22;67019;51.034;3.728;2024-03-17T01:19:35;9.80;99.90
77829;DHT22;67019;51.034;3.728;2024-03-17T01:22:02;9.70;99.90
77829;DHT22;67019;51.034;3.728;2024-03-17T01:24:28;9.60;99.90
77829;DHT22;67019;51.034;3.728;2024-03-17T01:26:59;9.70;99.90
77829;DHT22;67019;51.034;3.728;2024-03-17T01:29:27;9.70;99.90
77829;DHT22;67019;51.034;3.728;2024-03-17T01:31:54;9.60;99.90
77829;DHT22;67019;51.034;3.728;2024-03-17T01:34:21;9.50;99.90
77829;DHT22;67019;51.034;3.728;2024-03-17T01:36:48;9.50;99.90
77829;DHT22;67019;51.034;3.728;2024-03-17T01:39:15;9.40;99.90
77829;DHT22;67019;51.034;3.728;2024-03-17T01:41:43;9.30;99.90
77829;DHT22;67019;51.034;3.728;2024-03-17T01:44:23;9.30;99.90
77829;DHT22;67019;51.034;3.728;2024-03-17T01:46:50;9.20;99.90
77829;DHT22;67019;51.034;3.728;2024-03-17T01:49:17;9.00;99.90
77829;DHT22;67019;51.034;3.728;2024-03-17T01:51:45;9.20;99.90
77829;DHT22;67019;51.034;3.728;2024-03-17T01:54:13;9.20;99.90
77829;DHT22;67019;51.034;3.728;2024-03-17T01:56:41;9.10;99.90
77829;DHT22;67019;51.034;3.728;2024-03-17T01:59:08;9.10;99.90
77829;DHT22;67019;51.034;3.728;2024-03-17T02:01:35;9.10;99.90
77829;DHT22;67019;51.034;3.728;2024-03-17T02:04:03;9.10;99.90
77829;DHT22;67019;51.034;3.728;2024-03-17T02:06:30;9.10;99.90
77829;DHT22;67019;51.034;3.728;2024-03-17T02:08:57;9.20;99.90
77829;DHT22;67019;51.034;3.728;2024-03-17T02:11:27;9.30;99.90
77829;DHT22;67019;51.034;3.728;2024-03-17T02:13:55;9.30;99.90
77829;DHT22;67019;51.034;3.728;2024-03-17T02:16:22;9.30;99.90
77829;DHT22;67019;51.034;3.728;2024-03-17T02:18:50;9.10;99.90
77829;DHT22;67019;51.034;3.728;2024-03-17T02:21:17;9.10;99.90
77829;DHT22;67019;51.034;3.728;2024-03-17T02:23:46;9.30;99.90
77829;DHT22;67019;51.034;3.728;2024-03-17T02:26:13;9.10;99.90
77829;DHT22;67019;51.034;3.728;2024-03-17T02:28:43;9.10;99.90
77829;DHT22;67019;51.034;3.728;2024-03-17T02:31:10;9.20;99.90
77829;DHT22;67019;51.034;3.728;2024-03-17T02:33:38;9.10;99.90
77829;DHT22;67019;51.034;3.728;2024-03-17T02:36:05;9.30;99.90
77829;DHT22;67019;51.034;3.728;2024-03-17T02:38:42;9.20;99.90
77829;DHT22;67019;51.034;3.728;2024-03-17T02:41:24;9.00;99.90
77829;DHT22;67019;51.034;3.728;2024-03-17T02:43:51;9.10;99.90
77829;DHT22;67019;51.034;3.728;2024-03-17T02:46:18;9.20;99.90
77829;DHT22;67019;51.034;3.728;2024-03-17T02:48:53;9.40;99.90
77829;DHT22;67019;51.034;3.728;2024-03-17T02:51:14;9.50;99.90
77829;DHT22;67019;51.034;3.728;2024-03-17T02:53:41;9.30;99.90
77829;DHT22;67019;51.034;3.728;2024-03-17T02:56:08;9.30;99.90
77829;DHT22;67019;51.034;3.728;2024-03-17T02:58:35;9.10;99.90
77829;DHT22;67019;51.034;3.728;2024-03-17T03:01:03;9.20;99.90
77829;DHT22;67019;51.034;3.728;2024-03-17T03:03:30;9.00;99.90
77829;DHT22;67019;51.034;3.728;2024-03-17T03:05:59;9.00;99.90
77829;DHT22;67019;51.034;3.728;2024-03-17T03:08:30;9.00;99.90
77829;DHT22;67019;51.034;3.728;2024-03-17T03:10:57;9.00;99.90
77829;DHT22;67019;51.034;3.728;2024-03-17T03:13:24;9.00;99.90
77829;DHT22;67019;51.034;3.728;2024-03-17T03:15:50;9.30;99.90
77829;DHT22;67019;51.034;3.728;2024-03-17T03:18:17;9.20;99.90
77829;DHT22;67019;51.034;3.728;2024-03-17T03:20:49;8.90;99.90
77829;DHT22;67019;51.034;3.728;2024-03-17T03:23:14;8.80;99.90
77829;DHT22;67019;51.034;3.728;2024-03-17T03:25:40;9.00;99.90
77829;DHT22;67019;51.034;3.728;2024-03-17T03:28:07;8.90;99.90
77829;DHT22;67019;51.034;3.728;2024-03-17T03:30:36;9.10;99.90
77829;DHT22;67019;51.034;3.728;2024-03-17T03:33:03;9.00;99.90
77829;DHT22;67019;51.034;3.728;2024-03-17T03:35:31;8.70;99.90
77829;DHT22;67019;51.034;3.728;2024-03-17T03:37:58;8.90;99.90
77829;DHT22;67019;51.034;3.728;2024-03-17T03:40:29;9.20;99.90
77829;DHT22;67019;51.034;3.728;2024-03-17T03:42:55;9.30;99.90
77829;DHT22;67019;51.034;3.728;2024-03-17T03:45:23;9.30;99.90
77829;DHT22;67019;51.034;3.728;2024-03-17T03:47:51;9.30;99.90
77829;DHT22;67019;51.034;3.728;2024-03-17T03:50:19;9.20;99.90
77829;DHT22;67019;51.034;3.728;2024-03-17T03:52:46;8.80;99.90
77829;DHT22;67019;51.034;3.728;2024-03-17T03:55:16;8.90;99.90
77829;DHT22;67019;51.034;3.728;2024-03-17T03:57:42;9.20;99.90
77829;DHT22;67019;51.034;3.728;2024-03-17T04:00:11;9.30;99.90
77829;DHT22;67019;51.034;3.728;2024-03-17T04:02:43;9.00;99.90
77829;DHT22;67019;51.034;3.728;2024-03-17T04:05:10;9.10;99.90
77829;DHT22;67019;51.034;3.728;2024-03-17T04:07:37;9.00;99.90
77829;DHT22;67019;51.034;3.728;2024-03-17T04:10:05;9.00;99.90
77829;DHT22;67019;51.034;3.728;2024-03-17T04:12:32;9.10;99.90
77829;DHT22;67019;51.034;3.728;2024-03-17T04:14:59;9.10;99.90
77829;DHT22;67019;51.034;3.728;2024-03-17T04:17:26;9.10;99.90
77829;DHT22;67019;51.034;3.728;2024-03-17T04:19:54;9.00;99.90
77829;DHT22;67019;51.034;3.728;2024-03-17T04:22:21;9.00;99.90
77829;DHT22;67019;51.034;3.728;2024-03-17T04:24:48;9.00;99.90
77829;DHT22;67019;51.034;3.728;2024-03-17T04:27:23;9.00;99.90
77829;DHT22;67019;51.034;3.728;2024-03-17T04:29:51;8.70;99.90
77829;DHT22;67019;51.034;3.728;2024-03-17T04:32:18;8.60;99.90
77829;DHT22;67019;51.034;3.728;2024-03-17T04:34:45;11.40;99.90
77829;DHT22;67019;51.034;3.728;2024-03-17T04:37:13;8.90;99.90
77829;DHT22;67019;51.034;3.728;2024-03-17T04:39:43;9.10;99.90
77829;DHT22;67019;51.034;3.728;2024-03-17T04:42:11;9.00;99.90
77829;DHT22;67019;51.034;3.728;2024-03-17T04:44:38;9.00;99.90
77829;DHT22;67019;51.034;3.728;2024-03-17T04:47:06;9.10;99.90
77829;DHT22;67019;51.034;3.728;2024-03-17T04:49:38;9.10;99.90
77829;DHT22;67019;51.034;3.728;2024-03-17T04:52:01;9.00;99.90
77829;DHT22;67019;51.034;3.728;2024-03-17T04:54:28;9.00;99.90
77829;DHT22;67019;51.034;3.728;2024-03-17T04:56:56;8.80;99.90
77829;DHT22;67019;51.034;3.728;2024-03-17T04:59:23;8.90;99.90
77829;DHT22;67019;51.034;3.728;2024-03-17T05:01:50;9.00;99.90
77829;DHT22;67019;51.034;3.728;2024-03-17T05:04:17;9.10;99.90
77829;DHT22;67019;51.034;3.728;2024-03-17T05:06:44;9.30;99.90
77829;DHT22;67019;51.034;3.728;2024-03-17T05:09:16;9.10;99.90
77829;DHT22;67019;51.034;3.728;2024-03-17T05:11:43;9.20;99.90
77829;DHT22;67019;51.034;3.728;2024-03-17T05:14:10;9.10;99.90
77829;DHT22;67019;51.034;3.728;2024-03-17T05:16:37;9.10;99.90
77829;DHT22;67019;51.034;3.728;2024-03-17T05:19:03;9.20;99.90
77829;DHT22;67019;51.034;3.728;2024-03-17T05:21:30;8.90;99.90
77829;DHT22;67019;51.034;3.728;2024-03-17T05:24:00;9.00;99.90
77829;DHT22;67019;51.034;3.728;2024-03-17T05:26:26;9.20;99.90
77829;DHT22;67019;51.034;3.728;2024-03-17T05:28:53;9.20;99.90
77829;DHT22;67019;51.034;3.728;2024-03-17T05:31:20;9.20;99.90
77829;DHT22;67019;51.034;3.728;2024-03-17T05:33:48;9.10;99.90
77829;DHT22;67019;51.034;3.728;2024-03-17T05:36:15;9.10;99.90
77829;DHT22;67019;51.034;3.728;2024-03-17T05:38:43;9.20;99.90
77829;DHT22;67019;51.034;3.728;2024-03-17T05:41:10;9.20;99.90
77829;DHT22;67019;51.034;3.728;2024-03-17T05:43:37;9.20;99.90
77829;DHT22;67019;51.034;3.728;2024-03-17T05:46:05;9.10;99.90
77829;DHT22;67019;51.034;3.728;2024-03-17T05:48:33;9.10;99.90
77829;DHT22;67019;51.034;3.728;2024-03-17T05:51:02;9.20;99.90
77829;DHT22;67019;51.034;3.728;2024-03-17T05:53:29;9.30;99.90
77829;DHT22;67019;51.034;3.728;2024-03-17T05:56:04;9.30;99.90
77829;DHT22;67019;51.034;3.728;2024-03-17T05:58:30;9.20;99.90
77829;DHT22;67019;51.034;3.728;2024-03-17T06:00:57;9.10;99.90
77829;DHT22;67019;51.034;3.728;2024-03-17T06:03:24;9.20;99.90
77829;DHT22;67019;51.034;3.728;2024-03-17T06:05:51;9.00;99.90
77829;DHT22;67019;51.034;3.728;2024-03-17T06:08:19;9.00;99.90
77829;DHT22;67019;51.034;3.728;2024-03-17T06:10:47;9.10;99.90
77829;DHT22;67019;51.034;3.728;2024-03-17T06:13:14;9.10;99.90
77829;DHT22;67019;51.034;3.728;2024-03-17T06:15:43;9.20;99.90
77829;DHT22;67019;51.034;3.728;2024-03-17T06:18:11;9.20;99.90
77829;DHT22;67019;51.034;3.728;2024-03-17T06:20:40;9.30;99.90
77829;DHT22;67019;51.034;3.728;2024-03-17T06:23:15;9.30;99.90
77829;DHT22;67019;51.034;3.728;2024-03-17T06:25:43;9.40;99.90
77829;DHT22;67019;51.034;3.728;2024-03-17T06:28:08;9.30;99.90
77829;DHT22;67019;51.034;3.728;2024-03-17T06:30:35;9.50;99.90
77829;DHT22;67019;51.034;3.728;2024-03-17T06:33:03;9.50;99.90
77829;DHT22;67019;51.034;3.728;2024-03-17T06:35:31;9.40;99.90
77829;DHT22;67019;51.034;3.728;2024-03-17T06:38:01;9.50;99.90
77829;DHT22;67019;51.034;3.728;2024-03-17T06:40:28;9.30;99.90
77829;DHT22;67019;51.034;3.728;2024-03-17T06:42:55;9.50;99.90
77829;DHT22;67019;51.034;3.728;2024-03-17T06:45:22;9.70;99.90
77829;DHT22;67019;51.034;3.728;2024-03-17T06:47:50;9.90;99.90
77829;DHT22;67019;51.034;3.728;2024-03-17T06:50:16;10.10;99.90
77829;DHT22;67019;51.034;3.728;2024-03-17T06:52:43;10.10;99.90
77829;DHT22;67019;51.034;3.728;2024-03-17T06:55:12;10.30;99.90
77829;DHT22;67019;51.034;3.728;2024-03-17T06:57:41;10.20;99.90
77829;DHT22;67019;51.034;3.728;2024-03-17T07:00:09;10.40;99.90
77829;DHT22;67019;51.034;3.728;2024-03-17T07:02:37;10.20;99.90
77829;DHT22;67019;51.034;3.728;2024-03-17T07:05:10;10.40;99.90
77829;DHT22;67019;51.034;3.728;2024-03-17T07:07:34;10.40;99.90
77829;DHT22;67019;51.034;3.728;2024-03-17T07:10:01;10.20;99.90
77829;DHT22;67019;51.034;3.728;2024-03-17T07:12:30;10.40;99.90
77829;DHT22;67019;51.034;3.728;2024-03-17T07:14:57;10.30;99.90
77829;DHT22;67019;51.034;3.728;2024-03-17T07:17:23;10.30;99.90
77829;DHT22;67019;51.034;3.728;2024-03-17T07:19:50;10.30;99.90
77829;DHT22;67019;51.034;3.728;2024-03-17T07:22:19;10.30;99.90
77829;DHT22;67019;51.034;3.728;2024-03-17T07:24:47;10.30;99.90
77829;DHT22;67019;51.034;3.728;2024-03-17T07:27:16;10.20;99.90
77829;DHT22;67019;51.034;3.728;2024-03-17T07:29:42;10.20;99.90
77829;DHT22;67019;51.034;3.728;2024-03-17T07:32:09;10.50;99.90
77829;DHT22;67019;51.034;3.728;2024-03-17T07:34:36;10.50;99.90
77829;DHT22;67019;51.034;3.728;2024-03-17T07:37:03;10.30;99.90
77829;DHT22;67019;51.034;3.728;2024-03-17T07:39:30;10.50;99.90
77829;DHT22;67019;51.034;3.728;2024-03-17T07:42:00;10.50;99.90
77829;DHT22;67019;51.034;3.728;2024-03-17T07:44:30;10.60;99.90
77829;DHT22;67019;51.034;3.728;2024-03-17T07:47:00;10.70;99.90
77829;DHT22;67019;51.034;3.728;2024-03-17T07:49:27;10.80;99.90
77829;DHT22;67019;51.034;3.728;2024-03-17T07:51:54;10.70;99.90
77829;DHT22;67019;51.034;3.728;2024-03-17T07:54:23;10.60;99.90
77829;DHT22;67019;51.034;3.728;2024-03-17T07:56:50;10.50;99.90
77829;DHT22;67019;51.034;3.728;2024-03-17T07:59:17;10.60;99.90
77829;DHT22;67019;51.034;3.728;2024-03-17T08:01:44;10.70;99.90
77829;DHT22;67019;51.034;3.728;2024-03-17T08:04:11;10.70;99.90
77829;DHT22;67019;51.034;3.728;2024-03-17T08:06:43;11.10;99.90
77829;DHT22;67019;51.034;3.728;2024-03-17T08:09:07;11.20;99.90
77829;DHT22;67019;51.034;3.728;2024-03-17T08:11:34;11.40;99.90
77829;DHT22;67019;51.034;3.728;2024-03-17T08:14:04;11.30;99.90
77829;DHT22;67019;51.034;3.728;2024-03-17T08:16:31;11.10;99.90
77829;DHT22;67019;51.034;3.728;2024-03-17T08:18:58;11.10;99.90
77829;DHT22;67019;51.034;3.728;2024-03-17T08:21:25;11.10;99.90
77829;DHT22;67019;51.034;3.728;2024-03-17T08:23:53;11.20;99.90
77829;DHT22;67019;51.034;3.728;2024-03-17T08:26:20;10.80;99.90
77829;DHT22;67019;51.034;3.728;2024-03-17T08:28:47;10.90;99.90
77829;DHT22;67019;51.034;3.728;2024-03-17T08:31:14;11.30;99.90
77829;DHT22;67019;51.034;3.728;2024-03-17T08:33:44;11.20;99.90
77829;DHT22;67019;51.034;3.728;2024-03-17T08:36:12;11.20;99.90
77829;DHT22;67019;51.034;3.728;2024-03-17T08:38:41;11.20;99.90
77829;DHT22;67019;51.034;3.728;2024-03-17T08:41:09;11.10;99.90
77829;DHT22;67019;51.034;3.728;2024-03-17T08:43:36;11.20;99.90
77829;DHT22;67019;51.034;3.728;2024-03-17T08:46:04;11.30;99.90
77829;DHT22;67019;51.034;3.728;2024-03-17T08:48:37;11.10;99.90
77829;DHT22;67019;51.034;3.728;2024-03-17T08:51:01;11.10;99.90
77829;DHT22;67019;51.034;3.728;2024-03-17T08:53:28;11.10;99.90
77829;DHT22;67019;51.034;3.728;2024-03-17T08:55:56;11.00;99.90
77829;DHT22;67019;51.034;3.728;2024-03-17T08:58:23;10.80;99.90
77829;DHT22;67019;51.034;3.728;2024-03-17T09:00:50;11.00;99.90
77829;DHT22;67019;51.034;3.728;2024-03-17T09:03:19;11.10;99.90
77829;DHT22;67019;51.034;3.728;2024-03-17T09:05:47;10.80;99.90
77829;DHT22;67019;51.034;3.728;2024-03-17T09:10:43;10.70;99.90
77829;DHT22;67019;51.034;3.728;2024-03-17T09:13:24;10.80;99.90
77829;DHT22;67019;51.034;3.728;2024-03-17T09:15:56;10.90;99.90
77829;DHT22;67019;51.034;3.728;2024-03-17T09:18:25;10.70;99.90
77829;DHT22;67019;51.034;3.728;2024-03-17T09:20:59;10.90;99.90
77829;DHT22;67019;51.034;3.728;2024-03-17T09:23:27;10.90;99.90
77829;DHT22;67019;51.034;3.728;2024-03-17T09:26:03;11.00;99.90
77829;DHT22;67019;51.034;3.728;2024-03-17T09:28:31;11.10;99.90
77829;DHT22;67019;51.034;3.728;2024-03-17T09:30:59;11.10;99.90
77829;DHT22;67019;51.034;3.728;2024-03-17T09:33:27;11.10;99.90
77829;DHT22;67019;51.034;3.728;2024-03-17T09:35:58;11.10;99.90
77829;DHT22;67019;51.034;3.728;2024-03-17T09:38:26;11.20;99.90
77829;DHT22;67019;51.034;3.728;2024-03-17T09:40:53;11.20;99.90
77829;DHT22;67019;51.034;3.728;2024-03-17T09:43:22;11.20;99.90
77829;DHT22;67019;51.034;3.728;2024-03-17T09:45:49;10.90;99.90
77829;DHT22;67019;51.034;3.728;2024-03-17T09:48:17;10.50;99.90
77829;DHT22;67019;51.034;3.728;2024-03-17T09:50:48;10.60;99.90
77829;DHT22;67019;51.034;3.728;2024-03-17T09:53:13;10.50;99.90
77829;DHT22;67019;51.034;3.728;2024-03-17T09:55:41;10.50;99.90
77829;DHT22;67019;51.034;3.728;2024-03-17T09:58:17;10.70;99.90
77829;DHT22;67019;51.034;3.728;2024-03-17T10:00:45;10.80;99.90
77829;DHT22;67019;51.034;3.728;2024-03-17T10:03:12;10.80;99.90
77829;DHT22;67019;51.034;3.728;2024-03-17T10:05:40;10.80;99.90
77829;DHT22;67019;51.034;3.728;2024-03-17T10:08:07;10.90;99.90
77829;DHT22;67019;51.034;3.728;2024-03-17T10:10:35;11.00;99.90
77829;DHT22;67019;51.034;3.728;2024-03-17T10:13:03;11.10;99.90
77829;DHT22;67019;51.034;3.728;2024-03-17T10:15:30;11.20;99.90
77829;DHT22;67019;51.034;3.728;2024-03-17T10:17:57;11.20;99.90
77829;DHT22;67019;51.034;3.728;2024-03-17T10:20:24;11.30;99.90
77829;DHT22;67019;51.034;3.728;2024-03-17T10:23:04;11.40;99.90
77829;DHT22;67019;51.034;3.728;2024-03-17T10:25:32;11.50;99.90
77829;DHT22;67019;51.034;3.728;2024-03-17T10:27:59;11.60;99.90
77829;DHT22;67019;51.034;3.728;2024-03-17T10:30:27;11.80;99.90
77829;DHT22;67019;51.034;3.728;2024-03-17T10:32:56;11.90;99.90
77829;DHT22;67019;51.034;3.728;2024-03-17T10:35:27;12.20;99.90
77829;DHT22;67019;51.034;3.728;2024-03-17T10:37:55;12.40;99.90
77829;DHT22;67019;51.034;3.728;2024-03-17T10:40:23;13.50;99.90
77829;DHT22;67019;51.034;3.728;2024-03-17T10:42:50;12.70;99.90
77829;DHT22;67019;51.034;3.728;2024-03-17T10:45:17;12.70;99.90
77829;DHT22;67019;51.034;3.728;2024-03-17T10:47:47;12.60;99.90
77829;DHT22;67019;51.034;3.728;2024-03-17T10:50:14;12.60;99.90
77829;DHT22;67019;51.034;3.728;2024-03-17T10:52:41;12.60;99.90
77829;DHT22;67019;51.034;3.728;2024-03-17T10:55:10;12.70;99.90
77829;DHT22;67019;51.034;3.728;2024-03-17T10:57:44;12.70;99.90
77829;DHT22;67019;51.034;3.728;2024-03-17T11:00:10;14.40;99.90
77829;DHT22;67019;51.034;3.728;2024-03-17T11:02:39;12.80;99.90
77829;DHT22;67019;51.034;3.728;2024-03-17T11:05:27;12.80;99.90
77829;DHT22;67019;51.034;3.728;2024-03-17T11:07:51;13.00;99.90
77829;DHT22;67019;51.034;3.728;2024-03-17T11:10:28;13.10;99.90
77829;DHT22;67019;51.034;3.728;2024-03-17T11:12:55;13.10;99.90
77829;DHT22;67019;51.034;3.728;2024-03-17T11:17:53;13.30;99.90
77829;DHT22;67019;51.034;3.728;2024-03-17T11:20:30;13.30;99.90
77829;DHT22;67019;51.034;3.728;2024-03-17T11:22:58;13.60;99.90
77829;DHT22;67019;51.034;3.728;2024-03-17T11:27:57;14.10;99.90
77829;DHT22;67019;51.034;3.728;2024-03-17T11:38:54;14.70;99.90
77829;DHT22;67019;51.034;3.728;2024-03-17T11:41:35;14.80;99.90
77829;DHT22;67019;51.034;3.728;2024-03-17T11:46:51;14.30;99.90
77829;DHT22;67019;51.034;3.728;2024-03-17T11:49:24;14.60;99.90
77829;DHT22;67019;51.034;3.728;2024-03-17T11:51:51;14.80;99.90
77829;DHT22;67019;51.034;3.728;2024-03-17T11:54:19;14.80;99.90
77829;DHT22;67019;51.034;3.728;2024-03-17T11:56:51;15.10;99.90
77829;DHT22;67019;51.034;3.728;2024-03-17T11:59:15;15.30;99.90
77829;DHT22;67019;51.034;3.728;2024-03-17T12:01:44;15.30;99.90
77829;DHT22;67019;51.034;3.728;2024-03-17T12:04:13;15.10;99.90
77829;DHT22;67019;51.034;3.728;2024-03-17T12:06:44;15.20;99.90
77829;DHT22;67019;51.034;3.728;2024-03-17T12:09:16;15.00;99.90
77829;DHT22;67019;51.034;3.728;2024-03-17T12:11:39;15.00;99.90
77829;DHT22;67019;51.034;3.728;2024-03-17T12:16:46;15.40;99.90
77829;DHT22;67019;51.034;3.728;2024-03-17T12:19:15;15.40;99.90
77829;DHT22;67019;51.034;3.728;2024-03-17T12:21:46;15.30;99.90
77829;DHT22;67019;51.034;3.728;2024-03-17T12:24:34;15.10;99.90
77829;DHT22;67019;51.034;3.728;2024-03-17T12:26:43;15.00;99.90
77829;DHT22;67019;51.034;3.728;2024-03-17T12:29:26;15.10;99.90
77829;DHT22;67019;51.034;3.728;2024-03-17T12:31:57;15.30;99.90
77829;DHT22;67019;51.034;3.728;2024-03-17T12:34:25;15.20;99.90
77829;DHT22;67019;51.034;3.728;2024-03-17T12:36:53;15.00;99.90
77829;DHT22;67019;51.034;3.728;2024-03-17T12:39:23;15.30;99.90
77829;DHT22;67019;51.034;3.728;2024-03-17T12:44:37;15.30;99.90
77829;DHT22;67019;51.034;3.728;2024-03-17T12:47:06;15.00;99.90
77829;DHT22;67019;51.034;3.728;2024-03-17T12:49:34;14.90;99.90
77829;DHT22;67019;51.034;3.728;2024-03-17T12:52:01;15.00;99.90
77829;DHT22;67019;51.034;3.728;2024-03-17T12:54:28;15.10;99.90
77829;DHT22;67019;51.034;3.728;2024-03-17T12:57:06;15.10;99.90
77829;DHT22;67019;51.034;3.728;2024-03-17T12:59:51;15.10;99.90
77829;DHT22;67019;51.034;3.728;2024-03-17T13:02:42;15.20;99.90
77829;DHT22;67019;51.034;3.728;2024-03-17T13:05:10;15.10;99.90
77829;DHT22;67019;51.034;3.728;2024-03-17T13:07:38;15.30;99.90
77829;DHT22;67019;51.034;3.728;2024-03-17T13:10:05;15.20;99.90
77829;DHT22;67019;51.034;3.728;2024-03-17T13:12:33;15.10;99.90
77829;DHT22;67019;51.034;3.728;2024-03-17T13:15:00;15.30;99.90
77829;DHT22;67019;51.034;3.728;2024-03-17T13:17:27;15.40;99.90
77829;DHT22;67019;51.034;3.728;2024-03-17T13:19:56;15.20;99.90
77829;DHT22;67019;51.034;3.728;2024-03-17T13:22:23;15.10;99.90
77829;DHT22;67019;51.034;3.728;2024-03-17T13:24:49;15.20;99.90
77829;DHT22;67019;51.034;3.728;2024-03-17T13:27:17;15.30;99.90
77829;DHT22;67019;51.034;3.728;2024-03-17T13:29:47;15.20;99.90
77829;DHT22;67019;51.034;3.728;2024-03-17T13:32:12;15.20;99.90
77829;DHT22;67019;51.034;3.728;2024-03-17T13:34:40;15.30;99.90
77829;DHT22;67019;51.034;3.728;2024-03-17T13:37:07;15.20;99.90
77829;DHT22;67019;51.034;3.728;2024-03-17T13:39:34;15.20;99.90
77829;DHT22;67019;51.034;3.728;2024-03-17T13:42:01;15.10;99.90
77829;DHT22;67019;51.034;3.728;2024-03-17T13:44:29;15.00;99.90
77829;DHT22;67019;51.034;3.728;2024-03-17T13:46:59;14.90;99.90
77829;DHT22;67019;51.034;3.728;2024-03-17T13:49:29;14.80;99.90
77829;DHT22;67019;51.034;3.728;2024-03-17T13:51:56;15.00;99.90
77829;DHT22;67019;51.034;3.728;2024-03-17T13:54:23;15.10;99.90
77829;DHT22;67019;51.034;3.728;2024-03-17T13:56:50;15.00;99.90
77829;DHT22;67019;51.034;3.728;2024-03-17T13:59:17;14.90;99.90
77829;DHT22;67019;51.034;3.728;2024-03-17T14:01:44;14.90;99.90
77829;DHT22;67019;51.034;3.728;2024-03-17T14:04:13;15.00;99.90
77829;DHT22;67019;51.034;3.728;2024-03-17T14:06:44;14.80;99.90
77829;DHT22;67019;51.034;3.728;2024-03-17T14:09:09;14.70;99.90
77829;DHT22;67019;51.034;3.728;2024-03-17T14:11:36;14.80;99.90
77829;DHT22;67019;51.034;3.728;2024-03-17T14:14:07;15.00;99.90
77829;DHT22;67019;51.034;3.728;2024-03-17T14:16:34;15.10;99.90
77829;DHT22;67019;51.034;3.728;2024-03-17T14:19:01;15.10;99.90
77829;DHT22;67019;51.034;3.728;2024-03-17T14:21:28;14.90;99.90
77829;DHT22;67019;51.034;3.728;2024-03-17T14:23:55;14.90;99.90
77829;DHT22;67019;51.034;3.728;2024-03-17T14:26:22;14.80;99.90
77829;DHT22;67019;51.034;3.728;2024-03-17T14:28:49;14.60;99.90
77829;DHT22;67019;51.034;3.728;2024-03-17T14:31:17;14.40;99.90
77829;DHT22;67019;51.034;3.728;2024-03-17T14:33:44;14.20;99.90
77829;DHT22;67019;51.034;3.728;2024-03-17T14:36:11;14.10;99.90
77829;DHT22;67019;51.034;3.728;2024-03-17T14:38:38;14.80;99.90
77829;DHT22;67019;51.034;3.728;2024-03-17T14:41:06;14.20;99.90
77829;DHT22;67019;51.034;3.728;2024-03-17T14:43:33;14.30;99.90
77829;DHT22;67019;51.034;3.728;2024-03-17T14:46:01;14.40;99.90
77829;DHT22;67019;51.034;3.728;2024-03-17T14:48:28;14.50;99.90
77829;DHT22;67019;51.034;3.728;2024-03-17T14:50:55;14.50;99.90
77829;DHT22;67019;51.034;3.728;2024-03-17T14:53:22;14.40;99.90
77829;DHT22;67019;51.034;3.728;2024-03-17T14:55:49;14.50;99.90
77829;DHT22;67019;51.034;3.728;2024-03-17T14:58:16;14.40;99.90
77829;DHT22;67019;51.034;3.728;2024-03-17T15:00:42;14.30;99.90
77829;DHT22;67019;51.034;3.728;2024-03-17T15:03:09;14.10;99.90
77829;DHT22;67019;51.034;3.728;2024-03-17T15:05:36;14.00;99.90
77829;DHT22;67019;51.034;3.728;2024-03-17T15:08:03;14.00;99.90
77829;DHT22;67019;51.034;3.728;2024-03-17T15:10:32;14.00;99.90
77829;DHT22;67019;51.034;3.728;2024-03-17T15:12:59;14.10;99.90
77829;DHT22;67019;51.034;3.728;2024-03-17T15:15:25;14.10;99.90
77829;DHT22;67019;51.034;3.728;2024-03-17T15:17:53;13.90;99.90
77829;DHT22;67019;51.034;3.728;2024-03-17T15:20:20;13.80;99.90
77829;DHT22;67019;51.034;3.728;2024-03-17T15:22:48;13.80;99.90
77829;DHT22;67019;51.034;3.728;2024-03-17T15:25:15;13.90;99.90
77829;DHT22;67019;51.034;3.728;2024-03-17T15:27:43;14.00;99.90
77829;DHT22;67019;51.034;3.728;2024-03-17T15:30:11;13.90;99.90
77829;DHT22;67019;51.034;3.728;2024-03-17T15:32:43;13.90;99.90
77829;DHT22;67019;51.034;3.728;2024-03-17T15:35:10;14.00;99.90
77829;DHT22;67019;51.034;3.728;2024-03-17T15:37:42;13.80;99.90
77829;DHT22;67019;51.034;3.728;2024-03-17T15:40:09;13.60;99.90
77829;DHT22;67019;51.034;3.728;2024-03-17T15:42:46;13.50;99.90
77829;DHT22;67019;51.034;3.728;2024-03-17T15:45:10;13.40;99.90
77829;DHT22;67019;51.034;3.728;2024-03-17T15:47:37;13.50;99.90
77829;DHT22;67019;51.034;3.728;2024-03-17T15:50:04;13.40;99.90
77829;DHT22;67019;51.034;3.728;2024-03-17T15:52:31;13.30;99.90
77829;DHT22;67019;51.034;3.728;2024-03-17T15:55:00;13.30;99.90
77829;DHT22;67019;51.034;3.728;2024-03-17T15:57:33;13.30;99.90
77829;DHT22;67019;51.034;3.728;2024-03-17T15:59:57;13.30;99.90
77829;DHT22;67019;51.034;3.728;2024-03-17T16:02:27;13.40;99.90
77829;DHT22;67019;51.034;3.728;2024-03-17T16:04:54;13.30;99.90
77829;DHT22;67019;51.034;3.728;2024-03-17T16:07:21;13.30;99.90